<?xml version="1.0" encoding="UTF-8" standalone="no" ?>
<gpx xmlns="http://www.topografix.com/GPX/1/1" xmlns:xsi="http://www.w3.org/2001/XMLSchema-instance" xsi:schemaLocation="http://www.topografix.com/GPX/1/1 http://www.topografix.com/GPX/1/1/gpx.xsd" version="1.1" creator="VisuGPX - https://www.visugpx.com">
  <metadata>
    <name>2015-07-04 - Planches près Arbois</name>
    <desc><![CDATA[2015-07-04 - Planches près Arbois, une découverte de la région et une magnifique cascade.]]></desc>
  </metadata>
  <trk>
    <name><![CDATA[OR-8037873--Planches-près-Arbois (Les):2015-07-04 - Planches près Arbois]]></name>
    <trkseg>
      <trkpt lat="46.87883" lon="5.80642">
        <ele>329</ele>
        <time>2017-10-22T22:42:06Z</time>
      </trkpt>
      <trkpt lat="46.87868" lon="5.80537">
        <ele>331</ele>
        <time>2017-10-22T22:44:06Z</time>
      </trkpt>
      <trkpt lat="46.87842" lon="5.80543">
        <ele>331</ele>
        <time>2017-10-22T22:46:06Z</time>
      </trkpt>
      <trkpt lat="46.87809" lon="5.80559">
        <ele>330</ele>
        <time>2017-10-22T22:48:06Z</time>
      </trkpt>
      <trkpt lat="46.87771" lon="5.80574">
        <ele>329</ele>
        <time>2017-10-22T22:50:06Z</time>
      </trkpt>
      <trkpt lat="46.87739" lon="5.80573">
        <ele>330</ele>
        <time>2017-10-22T22:52:06Z</time>
      </trkpt>
      <trkpt lat="46.87676" lon="5.8056">
        <ele>332</ele>
        <time>2017-10-22T22:54:06Z</time>
      </trkpt>
      <trkpt lat="46.87655" lon="5.80551">
        <ele>334</ele>
        <time>2017-10-22T22:56:06Z</time>
      </trkpt>
      <trkpt lat="46.87637" lon="5.80534">
        <ele>336</ele>
        <time>2017-10-22T22:58:06Z</time>
      </trkpt>
      <trkpt lat="46.87629" lon="5.80513">
        <ele>337</ele>
        <time>2017-10-22T23:00:06Z</time>
      </trkpt>
      <trkpt lat="46.87625" lon="5.80487">
        <ele>341</ele>
        <time>2017-10-22T23:02:06Z</time>
      </trkpt>
      <trkpt lat="46.87613" lon="5.8046">
        <ele>346</ele>
        <time>2017-10-22T23:04:06Z</time>
      </trkpt>
      <trkpt lat="46.87595" lon="5.80437">
        <ele>349</ele>
        <time>2017-10-22T23:06:06Z</time>
      </trkpt>
      <trkpt lat="46.87576" lon="5.80412">
        <ele>352</ele>
        <time>2017-10-22T23:08:06Z</time>
      </trkpt>
      <trkpt lat="46.87559" lon="5.80385">
        <ele>357</ele>
        <time>2017-10-22T23:10:06Z</time>
      </trkpt>
      <trkpt lat="46.8754" lon="5.80362">
        <ele>360</ele>
        <time>2017-10-22T23:12:06Z</time>
      </trkpt>
      <trkpt lat="46.87509" lon="5.80337">
        <ele>361</ele>
        <time>2017-10-22T23:14:06Z</time>
      </trkpt>
      <trkpt lat="46.87483" lon="5.80324">
        <ele>361</ele>
        <time>2017-10-22T23:16:06Z</time>
      </trkpt>
      <trkpt lat="46.87459" lon="5.80317">
        <ele>361</ele>
        <time>2017-10-22T23:18:06Z</time>
      </trkpt>
      <trkpt lat="46.87433" lon="5.80313">
        <ele>359</ele>
        <time>2017-10-22T23:20:06Z</time>
      </trkpt>
      <trkpt lat="46.87409" lon="5.8031">
        <ele>357</ele>
        <time>2017-10-22T23:22:06Z</time>
      </trkpt>
      <trkpt lat="46.87396" lon="5.80293">
        <ele>360</ele>
        <time>2017-10-22T23:24:06Z</time>
      </trkpt>
      <trkpt lat="46.87375" lon="5.8027">
        <ele>363</ele>
        <time>2017-10-22T23:26:06Z</time>
      </trkpt>
      <trkpt lat="46.87346" lon="5.8025">
        <ele>363</ele>
        <time>2017-10-22T23:28:06Z</time>
      </trkpt>
      <trkpt lat="46.87319" lon="5.80242">
        <ele>365</ele>
        <time>2017-10-22T23:30:06Z</time>
      </trkpt>
      <trkpt lat="46.87284" lon="5.8025">
        <ele>369</ele>
        <time>2017-10-22T23:32:06Z</time>
      </trkpt>
      <trkpt lat="46.87264" lon="5.8026">
        <ele>371</ele>
        <time>2017-10-22T23:34:06Z</time>
      </trkpt>
      <trkpt lat="46.87238" lon="5.80294">
        <ele>375</ele>
        <time>2017-10-22T23:36:06Z</time>
      </trkpt>
      <trkpt lat="46.87223" lon="5.80328">
        <ele>375</ele>
        <time>2017-10-22T23:38:06Z</time>
      </trkpt>
      <trkpt lat="46.87205" lon="5.80358">
        <ele>375</ele>
        <time>2017-10-22T23:40:06Z</time>
      </trkpt>
      <trkpt lat="46.87189" lon="5.80383">
        <ele>375</ele>
        <time>2017-10-22T23:42:06Z</time>
      </trkpt>
      <trkpt lat="46.87176" lon="5.80399">
        <ele>374</ele>
        <time>2017-10-22T23:44:06Z</time>
      </trkpt>
      <trkpt lat="46.8715" lon="5.80414">
        <ele>380</ele>
        <time>2017-10-22T23:46:06Z</time>
      </trkpt>
      <trkpt lat="46.87124" lon="5.80434">
        <ele>389</ele>
        <time>2017-10-22T23:48:06Z</time>
      </trkpt>
      <trkpt lat="46.87112" lon="5.80463">
        <ele>389</ele>
        <time>2017-10-22T23:50:06Z</time>
      </trkpt>
      <trkpt lat="46.871" lon="5.80483">
        <ele>390</ele>
        <time>2017-10-22T23:52:06Z</time>
      </trkpt>
      <trkpt lat="46.87093" lon="5.80508">
        <ele>388</ele>
        <time>2017-10-22T23:54:06Z</time>
      </trkpt>
      <trkpt lat="46.87092" lon="5.80526">
        <ele>386</ele>
        <time>2017-10-22T23:56:06Z</time>
      </trkpt>
      <trkpt lat="46.8708" lon="5.80555">
        <ele>386</ele>
        <time>2017-10-22T23:58:06Z</time>
      </trkpt>
      <trkpt lat="46.87055" lon="5.80569">
        <ele>399</ele>
        <time>2017-10-23T00:00:06Z</time>
      </trkpt>
      <trkpt lat="46.8703" lon="5.80606">
        <ele>405</ele>
        <time>2017-10-23T00:02:06Z</time>
      </trkpt>
      <trkpt lat="46.87011" lon="5.80642">
        <ele>403</ele>
        <time>2017-10-23T00:04:06Z</time>
      </trkpt>
      <trkpt lat="46.86989" lon="5.8068">
        <ele>405</ele>
        <time>2017-10-23T00:06:06Z</time>
      </trkpt>
      <trkpt lat="46.86969" lon="5.80723">
        <ele>409</ele>
        <time>2017-10-23T00:08:06Z</time>
      </trkpt>
      <trkpt lat="46.86932" lon="5.80739">
        <ele>426</ele>
        <time>2017-10-23T00:10:06Z</time>
      </trkpt>
      <trkpt lat="46.86923" lon="5.80756">
        <ele>425</ele>
        <time>2017-10-23T00:12:06Z</time>
      </trkpt>
      <trkpt lat="46.8692" lon="5.80778">
        <ele>424</ele>
        <time>2017-10-23T00:14:06Z</time>
      </trkpt>
      <trkpt lat="46.86928" lon="5.80791">
        <ele>419</ele>
        <time>2017-10-23T00:16:06Z</time>
      </trkpt>
      <trkpt lat="46.86957" lon="5.80791">
        <ele>407</ele>
        <time>2017-10-23T00:18:06Z</time>
      </trkpt>
      <trkpt lat="46.86981" lon="5.80789">
        <ele>396</ele>
        <time>2017-10-23T00:20:06Z</time>
      </trkpt>
      <trkpt lat="46.87008" lon="5.80793">
        <ele>389</ele>
        <time>2017-10-23T00:22:06Z</time>
      </trkpt>
      <trkpt lat="46.87034" lon="5.80795">
        <ele>392</ele>
        <time>2017-10-23T00:24:06Z</time>
      </trkpt>
      <trkpt lat="46.87061" lon="5.80794">
        <ele>394</ele>
        <time>2017-10-23T00:26:06Z</time>
      </trkpt>
      <trkpt lat="46.8708" lon="5.80788">
        <ele>393</ele>
        <time>2017-10-23T00:28:06Z</time>
      </trkpt>
      <trkpt lat="46.87103" lon="5.8078">
        <ele>395</ele>
        <time>2017-10-23T00:30:06Z</time>
      </trkpt>
      <trkpt lat="46.87121" lon="5.80767">
        <ele>395</ele>
        <time>2017-10-23T00:32:06Z</time>
      </trkpt>
      <trkpt lat="46.87139" lon="5.80746">
        <ele>393</ele>
        <time>2017-10-23T00:34:06Z</time>
      </trkpt>
      <trkpt lat="46.87162" lon="5.8072">
        <ele>390</ele>
        <time>2017-10-23T00:36:06Z</time>
      </trkpt>
      <trkpt lat="46.87198" lon="5.80677">
        <ele>385</ele>
        <time>2017-10-23T00:38:06Z</time>
      </trkpt>
      <trkpt lat="46.87238" lon="5.80625">
        <ele>377</ele>
        <time>2017-10-23T00:40:06Z</time>
      </trkpt>
      <trkpt lat="46.87269" lon="5.80579">
        <ele>365</ele>
        <time>2017-10-23T00:42:06Z</time>
      </trkpt>
      <trkpt lat="46.87295" lon="5.80562">
        <ele>365</ele>
        <time>2017-10-23T00:44:06Z</time>
      </trkpt>
      <trkpt lat="46.87323" lon="5.80553">
        <ele>364</ele>
        <time>2017-10-23T00:46:06Z</time>
      </trkpt>
      <trkpt lat="46.87362" lon="5.80552">
        <ele>362</ele>
        <time>2017-10-23T00:48:06Z</time>
      </trkpt>
      <trkpt lat="46.87406" lon="5.80537">
        <ele>354</ele>
        <time>2017-10-23T00:50:06Z</time>
      </trkpt>
      <trkpt lat="46.87431" lon="5.80536">
        <ele>351</ele>
        <time>2017-10-23T00:52:06Z</time>
      </trkpt>
      <trkpt lat="46.87451" lon="5.80534">
        <ele>349</ele>
        <time>2017-10-23T00:54:06Z</time>
      </trkpt>
      <trkpt lat="46.87492" lon="5.80549">
        <ele>346</ele>
        <time>2017-10-23T00:56:06Z</time>
      </trkpt>
      <trkpt lat="46.8751" lon="5.80567">
        <ele>345</ele>
        <time>2017-10-23T00:58:06Z</time>
      </trkpt>
      <trkpt lat="46.87527" lon="5.80593">
        <ele>345</ele>
        <time>2017-10-23T01:00:06Z</time>
      </trkpt>
      <trkpt lat="46.87543" lon="5.80616">
        <ele>346</ele>
        <time>2017-10-23T01:02:06Z</time>
      </trkpt>
      <trkpt lat="46.87571" lon="5.80635">
        <ele>340</ele>
        <time>2017-10-23T01:04:06Z</time>
      </trkpt>
      <trkpt lat="46.87599" lon="5.80657">
        <ele>336</ele>
        <time>2017-10-23T01:06:06Z</time>
      </trkpt>
      <trkpt lat="46.87626" lon="5.80682">
        <ele>335</ele>
        <time>2017-10-23T01:08:06Z</time>
      </trkpt>
      <trkpt lat="46.87644" lon="5.807">
        <ele>333</ele>
        <time>2017-10-23T01:10:06Z</time>
      </trkpt>
      <trkpt lat="46.87667" lon="5.80714">
        <ele>330</ele>
        <time>2017-10-23T01:12:06Z</time>
      </trkpt>
      <trkpt lat="46.87685" lon="5.80719">
        <ele>329</ele>
        <time>2017-10-23T01:14:06Z</time>
      </trkpt>
      <trkpt lat="46.87723" lon="5.80716">
        <ele>329</ele>
        <time>2017-10-23T01:16:06Z</time>
      </trkpt>
      <trkpt lat="46.87746" lon="5.80724">
        <ele>328</ele>
        <time>2017-10-23T01:18:06Z</time>
      </trkpt>
      <trkpt lat="46.87773" lon="5.80732">
        <ele>329</ele>
        <time>2017-10-23T01:20:06Z</time>
      </trkpt>
      <trkpt lat="46.8779" lon="5.80736">
        <ele>329</ele>
        <time>2017-10-23T01:22:06Z</time>
      </trkpt>
      <trkpt lat="46.87824" lon="5.80714">
        <ele>329</ele>
        <time>2017-10-23T01:24:06Z</time>
      </trkpt>
      <trkpt lat="46.87817" lon="5.80759">
        <ele>329</ele>
        <time>2017-10-23T01:26:06Z</time>
      </trkpt>
      <trkpt lat="46.87812" lon="5.80789">
        <ele>331</ele>
        <time>2017-10-23T01:28:06Z</time>
      </trkpt>
      <trkpt lat="46.87798" lon="5.80812">
        <ele>332</ele>
        <time>2017-10-23T01:30:06Z</time>
      </trkpt>
      <trkpt lat="46.87785" lon="5.80832">
        <ele>334</ele>
        <time>2017-10-23T01:32:06Z</time>
      </trkpt>
      <trkpt lat="46.87772" lon="5.8085">
        <ele>338</ele>
        <time>2017-10-23T01:34:06Z</time>
      </trkpt>
      <trkpt lat="46.87761" lon="5.80867">
        <ele>342</ele>
        <time>2017-10-23T01:36:06Z</time>
      </trkpt>
      <trkpt lat="46.87752" lon="5.80901">
        <ele>350</ele>
        <time>2017-10-23T01:38:06Z</time>
      </trkpt>
      <trkpt lat="46.87774" lon="5.80924">
        <ele>352</ele>
        <time>2017-10-23T01:40:06Z</time>
      </trkpt>
      <trkpt lat="46.87794" lon="5.80943">
        <ele>356</ele>
        <time>2017-10-23T01:42:06Z</time>
      </trkpt>
      <trkpt lat="46.87792" lon="5.80959">
        <ele>361</ele>
        <time>2017-10-23T01:44:06Z</time>
      </trkpt>
      <trkpt lat="46.87805" lon="5.80981">
        <ele>365</ele>
        <time>2017-10-23T01:46:06Z</time>
      </trkpt>
      <trkpt lat="46.87819" lon="5.81001">
        <ele>369</ele>
        <time>2017-10-23T01:48:06Z</time>
      </trkpt>
      <trkpt lat="46.87836" lon="5.81014">
        <ele>371</ele>
        <time>2017-10-23T01:50:06Z</time>
      </trkpt>
      <trkpt lat="46.87846" lon="5.81031">
        <ele>375</ele>
        <time>2017-10-23T01:52:06Z</time>
      </trkpt>
      <trkpt lat="46.87845" lon="5.81047">
        <ele>381</ele>
        <time>2017-10-23T01:54:06Z</time>
      </trkpt>
      <trkpt lat="46.87835" lon="5.81048">
        <ele>386</ele>
        <time>2017-10-23T01:56:06Z</time>
      </trkpt>
      <trkpt lat="46.87824" lon="5.81037">
        <ele>384</ele>
        <time>2017-10-23T01:58:06Z</time>
      </trkpt>
      <trkpt lat="46.87809" lon="5.81023">
        <ele>381</ele>
        <time>2017-10-23T02:00:06Z</time>
      </trkpt>
      <trkpt lat="46.87793" lon="5.81015">
        <ele>380</ele>
        <time>2017-10-23T02:02:06Z</time>
      </trkpt>
      <trkpt lat="46.87773" lon="5.81009">
        <ele>381</ele>
        <time>2017-10-23T02:04:06Z</time>
      </trkpt>
      <trkpt lat="46.87747" lon="5.81009">
        <ele>386</ele>
        <time>2017-10-23T02:06:06Z</time>
      </trkpt>
      <trkpt lat="46.87718" lon="5.81011">
        <ele>388</ele>
        <time>2017-10-23T02:08:06Z</time>
      </trkpt>
      <trkpt lat="46.87692" lon="5.81021">
        <ele>394</ele>
        <time>2017-10-23T02:10:06Z</time>
      </trkpt>
      <trkpt lat="46.87667" lon="5.81033">
        <ele>400</ele>
        <time>2017-10-23T02:12:06Z</time>
      </trkpt>
      <trkpt lat="46.87649" lon="5.81045">
        <ele>403</ele>
        <time>2017-10-23T02:14:06Z</time>
      </trkpt>
      <trkpt lat="46.87621" lon="5.81061">
        <ele>406</ele>
        <time>2017-10-23T02:16:06Z</time>
      </trkpt>
      <trkpt lat="46.87594" lon="5.81109">
        <ele>420</ele>
        <time>2017-10-23T02:18:06Z</time>
      </trkpt>
      <trkpt lat="46.87578" lon="5.81133">
        <ele>426</ele>
        <time>2017-10-23T02:20:06Z</time>
      </trkpt>
      <trkpt lat="46.87559" lon="5.81155">
        <ele>437</ele>
        <time>2017-10-23T02:22:06Z</time>
      </trkpt>
      <trkpt lat="46.87541" lon="5.81178">
        <ele>449</ele>
        <time>2017-10-23T02:24:06Z</time>
      </trkpt>
      <trkpt lat="46.87528" lon="5.81187">
        <ele>455</ele>
        <time>2017-10-23T02:26:06Z</time>
      </trkpt>
      <trkpt lat="46.87509" lon="5.81194">
        <ele>459</ele>
        <time>2017-10-23T02:28:06Z</time>
      </trkpt>
      <trkpt lat="46.87503" lon="5.8119">
        <ele>458</ele>
        <time>2017-10-23T02:30:06Z</time>
      </trkpt>
      <trkpt lat="46.87491" lon="5.81175">
        <ele>456</ele>
        <time>2017-10-23T02:32:06Z</time>
      </trkpt>
      <trkpt lat="46.8748" lon="5.8116">
        <ele>457</ele>
        <time>2017-10-23T02:34:06Z</time>
      </trkpt>
      <trkpt lat="46.87468" lon="5.81146">
        <ele>460</ele>
        <time>2017-10-23T02:36:06Z</time>
      </trkpt>
      <trkpt lat="46.8743" lon="5.81067">
        <ele>468</ele>
        <time>2017-10-23T02:38:06Z</time>
      </trkpt>
      <trkpt lat="46.87435" lon="5.81044">
        <ele>465</ele>
        <time>2017-10-23T02:40:06Z</time>
      </trkpt>
      <trkpt lat="46.87446" lon="5.81004">
        <ele>458</ele>
        <time>2017-10-23T02:42:06Z</time>
      </trkpt>
      <trkpt lat="46.87442" lon="5.80955">
        <ele>458</ele>
        <time>2017-10-23T02:44:06Z</time>
      </trkpt>
      <trkpt lat="46.87421" lon="5.80901">
        <ele>463</ele>
        <time>2017-10-23T02:46:06Z</time>
      </trkpt>
      <trkpt lat="46.87396" lon="5.80865">
        <ele>462</ele>
        <time>2017-10-23T02:48:06Z</time>
      </trkpt>
      <trkpt lat="46.8738" lon="5.80861">
        <ele>465</ele>
        <time>2017-10-23T02:50:06Z</time>
      </trkpt>
      <trkpt lat="46.87369" lon="5.80875">
        <ele>472</ele>
        <time>2017-10-23T02:52:06Z</time>
      </trkpt>
      <trkpt lat="46.87372" lon="5.80903">
        <ele>478</ele>
        <time>2017-10-23T02:54:06Z</time>
      </trkpt>
      <trkpt lat="46.87374" lon="5.80936">
        <ele>483</ele>
        <time>2017-10-23T02:56:06Z</time>
      </trkpt>
      <trkpt lat="46.87321" lon="5.80933">
        <ele>494</ele>
        <time>2017-10-23T02:58:06Z</time>
      </trkpt>
      <trkpt lat="46.87314" lon="5.80943">
        <ele>495</ele>
        <time>2017-10-23T03:00:06Z</time>
      </trkpt>
      <trkpt lat="46.873" lon="5.80964">
        <ele>497</ele>
        <time>2017-10-23T03:02:06Z</time>
      </trkpt>
      <trkpt lat="46.87286" lon="5.80986">
        <ele>500</ele>
        <time>2017-10-23T03:04:06Z</time>
      </trkpt>
      <trkpt lat="46.87267" lon="5.81012">
        <ele>506</ele>
        <time>2017-10-23T03:06:06Z</time>
      </trkpt>
      <trkpt lat="46.87234" lon="5.81033">
        <ele>513</ele>
        <time>2017-10-23T03:08:06Z</time>
      </trkpt>
      <trkpt lat="46.87199" lon="5.81032">
        <ele>511</ele>
        <time>2017-10-23T03:10:06Z</time>
      </trkpt>
      <trkpt lat="46.87167" lon="5.81028">
        <ele>506</ele>
        <time>2017-10-23T03:12:06Z</time>
      </trkpt>
      <trkpt lat="46.87127" lon="5.81024">
        <ele>507</ele>
        <time>2017-10-23T03:14:06Z</time>
      </trkpt>
      <trkpt lat="46.87107" lon="5.81035">
        <ele>513</ele>
        <time>2017-10-23T03:16:06Z</time>
      </trkpt>
      <trkpt lat="46.87085" lon="5.81048">
        <ele>519</ele>
        <time>2017-10-23T03:18:06Z</time>
      </trkpt>
      <trkpt lat="46.87073" lon="5.81063">
        <ele>523</ele>
        <time>2017-10-23T03:20:06Z</time>
      </trkpt>
      <trkpt lat="46.87052" lon="5.81076">
        <ele>525</ele>
        <time>2017-10-23T03:22:06Z</time>
      </trkpt>
      <trkpt lat="46.87034" lon="5.81085">
        <ele>527</ele>
        <time>2017-10-23T03:24:06Z</time>
      </trkpt>
      <trkpt lat="46.86995" lon="5.81112">
        <ele>530</ele>
        <time>2017-10-23T03:26:06Z</time>
      </trkpt>
      <trkpt lat="46.86956" lon="5.81132">
        <ele>533</ele>
        <time>2017-10-23T03:28:06Z</time>
      </trkpt>
      <trkpt lat="46.86937" lon="5.81141">
        <ele>534</ele>
        <time>2017-10-23T03:30:06Z</time>
      </trkpt>
      <trkpt lat="46.86915" lon="5.81136">
        <ele>531</ele>
        <time>2017-10-23T03:32:06Z</time>
      </trkpt>
      <trkpt lat="46.86902" lon="5.81142">
        <ele>534</ele>
        <time>2017-10-23T03:34:06Z</time>
      </trkpt>
      <trkpt lat="46.86862" lon="5.81113">
        <ele>532</ele>
        <time>2017-10-23T03:36:06Z</time>
      </trkpt>
      <trkpt lat="46.86843" lon="5.81098">
        <ele>534</ele>
        <time>2017-10-23T03:38:06Z</time>
      </trkpt>
      <trkpt lat="46.86825" lon="5.81078">
        <ele>535</ele>
        <time>2017-10-23T03:40:06Z</time>
      </trkpt>
      <trkpt lat="46.86813" lon="5.81063">
        <ele>534</ele>
        <time>2017-10-23T03:42:06Z</time>
      </trkpt>
      <trkpt lat="46.86799" lon="5.81017">
        <ele>530</ele>
        <time>2017-10-23T03:44:06Z</time>
      </trkpt>
      <trkpt lat="46.86754" lon="5.80893">
        <ele>536</ele>
        <time>2017-10-23T03:46:06Z</time>
      </trkpt>
      <trkpt lat="46.86708" lon="5.80806">
        <ele>535</ele>
        <time>2017-10-23T03:48:06Z</time>
      </trkpt>
      <trkpt lat="46.86667" lon="5.80739">
        <ele>541</ele>
        <time>2017-10-23T03:50:06Z</time>
      </trkpt>
      <trkpt lat="46.86653" lon="5.80713">
        <ele>540</ele>
        <time>2017-10-23T03:52:06Z</time>
      </trkpt>
      <trkpt lat="46.86623" lon="5.80679">
        <ele>541</ele>
        <time>2017-10-23T03:54:06Z</time>
      </trkpt>
      <trkpt lat="46.86601" lon="5.80649">
        <ele>541</ele>
        <time>2017-10-23T03:56:06Z</time>
      </trkpt>
      <trkpt lat="46.86587" lon="5.80616">
        <ele>539</ele>
        <time>2017-10-23T03:58:06Z</time>
      </trkpt>
      <trkpt lat="46.86585" lon="5.80585">
        <ele>534</ele>
        <time>2017-10-23T04:00:06Z</time>
      </trkpt>
      <trkpt lat="46.8659" lon="5.80547">
        <ele>533</ele>
        <time>2017-10-23T04:02:06Z</time>
      </trkpt>
      <trkpt lat="46.86564" lon="5.80549">
        <ele>538</ele>
        <time>2017-10-23T04:04:06Z</time>
      </trkpt>
      <trkpt lat="46.86547" lon="5.80544">
        <ele>541</ele>
        <time>2017-10-23T04:06:06Z</time>
      </trkpt>
      <trkpt lat="46.86532" lon="5.80532">
        <ele>544</ele>
        <time>2017-10-23T04:08:06Z</time>
      </trkpt>
      <trkpt lat="46.86524" lon="5.80513">
        <ele>546</ele>
        <time>2017-10-23T04:10:06Z</time>
      </trkpt>
      <trkpt lat="46.86524" lon="5.80493">
        <ele>547</ele>
        <time>2017-10-23T04:12:06Z</time>
      </trkpt>
      <trkpt lat="46.86527" lon="5.80469">
        <ele>548</ele>
        <time>2017-10-23T04:14:06Z</time>
      </trkpt>
      <trkpt lat="46.86536" lon="5.80453">
        <ele>548</ele>
        <time>2017-10-23T04:16:06Z</time>
      </trkpt>
      <trkpt lat="46.86555" lon="5.80415">
        <ele>548</ele>
        <time>2017-10-23T04:18:06Z</time>
      </trkpt>
      <trkpt lat="46.86565" lon="5.80397">
        <ele>550</ele>
        <time>2017-10-23T04:20:06Z</time>
      </trkpt>
      <trkpt lat="46.86575" lon="5.80373">
        <ele>552</ele>
        <time>2017-10-23T04:22:06Z</time>
      </trkpt>
      <trkpt lat="46.86586" lon="5.80361">
        <ele>553</ele>
        <time>2017-10-23T04:24:06Z</time>
      </trkpt>
      <trkpt lat="46.866" lon="5.80354">
        <ele>554</ele>
        <time>2017-10-23T04:26:06Z</time>
      </trkpt>
      <trkpt lat="46.86619" lon="5.80356">
        <ele>554</ele>
        <time>2017-10-23T04:28:06Z</time>
      </trkpt>
      <trkpt lat="46.86639" lon="5.80367">
        <ele>551</ele>
        <time>2017-10-23T04:30:06Z</time>
      </trkpt>
      <trkpt lat="46.86655" lon="5.80369">
        <ele>551</ele>
        <time>2017-10-23T04:32:06Z</time>
      </trkpt>
      <trkpt lat="46.86672" lon="5.80362">
        <ele>552</ele>
        <time>2017-10-23T04:34:06Z</time>
      </trkpt>
      <trkpt lat="46.8669" lon="5.80353">
        <ele>554</ele>
        <time>2017-10-23T04:36:06Z</time>
      </trkpt>
      <trkpt lat="46.86707" lon="5.80348">
        <ele>555</ele>
        <time>2017-10-23T04:38:06Z</time>
      </trkpt>
      <trkpt lat="46.86728" lon="5.80351">
        <ele>555</ele>
        <time>2017-10-23T04:40:06Z</time>
      </trkpt>
      <trkpt lat="46.86753" lon="5.80349">
        <ele>555</ele>
        <time>2017-10-23T04:42:06Z</time>
      </trkpt>
      <trkpt lat="46.86761" lon="5.80333">
        <ele>559</ele>
        <time>2017-10-23T04:44:06Z</time>
      </trkpt>
      <trkpt lat="46.86769" lon="5.80296">
        <ele>563</ele>
        <time>2017-10-23T04:46:06Z</time>
      </trkpt>
      <trkpt lat="46.86774" lon="5.80264">
        <ele>567</ele>
        <time>2017-10-23T04:48:06Z</time>
      </trkpt>
      <trkpt lat="46.86768" lon="5.80244">
        <ele>568</ele>
        <time>2017-10-23T04:50:06Z</time>
      </trkpt>
      <trkpt lat="46.86764" lon="5.80222">
        <ele>568</ele>
        <time>2017-10-23T04:52:06Z</time>
      </trkpt>
      <trkpt lat="46.86771" lon="5.80203">
        <ele>568</ele>
        <time>2017-10-23T04:54:06Z</time>
      </trkpt>
      <trkpt lat="46.86778" lon="5.80187">
        <ele>568</ele>
        <time>2017-10-23T04:56:06Z</time>
      </trkpt>
      <trkpt lat="46.86788" lon="5.80172">
        <ele>568</ele>
        <time>2017-10-23T04:58:06Z</time>
      </trkpt>
      <trkpt lat="46.86798" lon="5.80174">
        <ele>568</ele>
        <time>2017-10-23T05:00:06Z</time>
      </trkpt>
      <trkpt lat="46.86807" lon="5.8017">
        <ele>568</ele>
        <time>2017-10-23T05:02:06Z</time>
      </trkpt>
      <trkpt lat="46.86823" lon="5.80155">
        <ele>567</ele>
        <time>2017-10-23T05:04:06Z</time>
      </trkpt>
      <trkpt lat="46.86838" lon="5.80144">
        <ele>567</ele>
        <time>2017-10-23T05:06:06Z</time>
      </trkpt>
      <trkpt lat="46.86873" lon="5.80127">
        <ele>566</ele>
        <time>2017-10-23T05:08:06Z</time>
      </trkpt>
      <trkpt lat="46.86898" lon="5.80108">
        <ele>565</ele>
        <time>2017-10-23T05:10:06Z</time>
      </trkpt>
      <trkpt lat="46.86935" lon="5.80097">
        <ele>563</ele>
        <time>2017-10-23T05:12:06Z</time>
      </trkpt>
      <trkpt lat="46.86962" lon="5.80082">
        <ele>562</ele>
        <time>2017-10-23T05:14:06Z</time>
      </trkpt>
      <trkpt lat="46.8698" lon="5.80069">
        <ele>561</ele>
        <time>2017-10-23T05:16:06Z</time>
      </trkpt>
      <trkpt lat="46.86993" lon="5.80049">
        <ele>561</ele>
        <time>2017-10-23T05:18:06Z</time>
      </trkpt>
      <trkpt lat="46.87003" lon="5.80031">
        <ele>560</ele>
        <time>2017-10-23T05:20:06Z</time>
      </trkpt>
      <trkpt lat="46.87011" lon="5.80005">
        <ele>559</ele>
        <time>2017-10-23T05:22:06Z</time>
      </trkpt>
      <trkpt lat="46.87018" lon="5.79974">
        <ele>560</ele>
        <time>2017-10-23T05:24:06Z</time>
      </trkpt>
      <trkpt lat="46.87026" lon="5.79941">
        <ele>561</ele>
        <time>2017-10-23T05:26:06Z</time>
      </trkpt>
      <trkpt lat="46.87034" lon="5.79918">
        <ele>563</ele>
        <time>2017-10-23T05:28:06Z</time>
      </trkpt>
      <trkpt lat="46.87049" lon="5.79899">
        <ele>564</ele>
        <time>2017-10-23T05:30:06Z</time>
      </trkpt>
      <trkpt lat="46.8707" lon="5.79871">
        <ele>565</ele>
        <time>2017-10-23T05:32:06Z</time>
      </trkpt>
      <trkpt lat="46.87089" lon="5.79845">
        <ele>565</ele>
        <time>2017-10-23T05:34:06Z</time>
      </trkpt>
      <trkpt lat="46.87104" lon="5.7982">
        <ele>564</ele>
        <time>2017-10-23T05:36:06Z</time>
      </trkpt>
      <trkpt lat="46.87119" lon="5.7981">
        <ele>563</ele>
        <time>2017-10-23T05:38:06Z</time>
      </trkpt>
      <trkpt lat="46.87135" lon="5.79806">
        <ele>562</ele>
        <time>2017-10-23T05:40:06Z</time>
      </trkpt>
      <trkpt lat="46.87157" lon="5.79801">
        <ele>560</ele>
        <time>2017-10-23T05:42:06Z</time>
      </trkpt>
      <trkpt lat="46.87175" lon="5.79787">
        <ele>561</ele>
        <time>2017-10-23T05:44:06Z</time>
      </trkpt>
      <trkpt lat="46.87218" lon="5.79776">
        <ele>561</ele>
        <time>2017-10-23T05:46:06Z</time>
      </trkpt>
      <trkpt lat="46.87282" lon="5.79796">
        <ele>554</ele>
        <time>2017-10-23T05:48:06Z</time>
      </trkpt>
      <trkpt lat="46.87333" lon="5.7979">
        <ele>558</ele>
        <time>2017-10-23T05:50:06Z</time>
      </trkpt>
      <trkpt lat="46.87359" lon="5.79784">
        <ele>559</ele>
        <time>2017-10-23T05:52:06Z</time>
      </trkpt>
      <trkpt lat="46.8738" lon="5.79778">
        <ele>561</ele>
        <time>2017-10-23T05:54:06Z</time>
      </trkpt>
      <trkpt lat="46.87431" lon="5.79774">
        <ele>562</ele>
        <time>2017-10-23T05:56:06Z</time>
      </trkpt>
      <trkpt lat="46.87485" lon="5.79774">
        <ele>562</ele>
        <time>2017-10-23T05:58:06Z</time>
      </trkpt>
      <trkpt lat="46.87499" lon="5.79753">
        <ele>565</ele>
        <time>2017-10-23T06:00:06Z</time>
      </trkpt>
      <trkpt lat="46.87515" lon="5.79717">
        <ele>566</ele>
        <time>2017-10-23T06:02:06Z</time>
      </trkpt>
      <trkpt lat="46.87522" lon="5.79727">
        <ele>566</ele>
        <time>2017-10-23T06:04:06Z</time>
      </trkpt>
      <trkpt lat="46.87539" lon="5.79722">
        <ele>567</ele>
        <time>2017-10-23T06:06:06Z</time>
      </trkpt>
      <trkpt lat="46.87559" lon="5.79712">
        <ele>567</ele>
        <time>2017-10-23T06:08:06Z</time>
      </trkpt>
      <trkpt lat="46.87573" lon="5.79713">
        <ele>568</ele>
        <time>2017-10-23T06:10:06Z</time>
      </trkpt>
      <trkpt lat="46.87588" lon="5.79715">
        <ele>569</ele>
        <time>2017-10-23T06:12:06Z</time>
      </trkpt>
      <trkpt lat="46.87608" lon="5.79714">
        <ele>571</ele>
        <time>2017-10-23T06:14:06Z</time>
      </trkpt>
      <trkpt lat="46.87631" lon="5.79708">
        <ele>573</ele>
        <time>2017-10-23T06:16:06Z</time>
      </trkpt>
      <trkpt lat="46.87653" lon="5.79699">
        <ele>575</ele>
        <time>2017-10-23T06:18:06Z</time>
      </trkpt>
      <trkpt lat="46.87694" lon="5.79688">
        <ele>578</ele>
        <time>2017-10-23T06:20:06Z</time>
      </trkpt>
      <trkpt lat="46.87722" lon="5.79674">
        <ele>579</ele>
        <time>2017-10-23T06:22:06Z</time>
      </trkpt>
      <trkpt lat="46.87879" lon="5.79602">
        <ele>572</ele>
        <time>2017-10-23T06:24:06Z</time>
      </trkpt>
      <trkpt lat="46.87908" lon="5.79607">
        <ele>572</ele>
        <time>2017-10-23T06:26:06Z</time>
      </trkpt>
      <trkpt lat="46.87929" lon="5.79604">
        <ele>573</ele>
        <time>2017-10-23T06:28:06Z</time>
      </trkpt>
      <trkpt lat="46.87959" lon="5.79606">
        <ele>573</ele>
        <time>2017-10-23T06:30:06Z</time>
      </trkpt>
      <trkpt lat="46.87991" lon="5.79604">
        <ele>574</ele>
        <time>2017-10-23T06:32:06Z</time>
      </trkpt>
      <trkpt lat="46.88023" lon="5.79605">
        <ele>574</ele>
        <time>2017-10-23T06:34:06Z</time>
      </trkpt>
      <trkpt lat="46.88063" lon="5.79603">
        <ele>573</ele>
        <time>2017-10-23T06:36:06Z</time>
      </trkpt>
      <trkpt lat="46.88078" lon="5.79598">
        <ele>573</ele>
        <time>2017-10-23T06:38:06Z</time>
      </trkpt>
      <trkpt lat="46.88111" lon="5.79572">
        <ele>574</ele>
        <time>2017-10-23T06:40:06Z</time>
      </trkpt>
      <trkpt lat="46.88128" lon="5.79556">
        <ele>574</ele>
        <time>2017-10-23T06:42:06Z</time>
      </trkpt>
      <trkpt lat="46.88165" lon="5.79549">
        <ele>574</ele>
        <time>2017-10-23T06:44:06Z</time>
      </trkpt>
      <trkpt lat="46.88194" lon="5.79544">
        <ele>575</ele>
        <time>2017-10-23T06:46:06Z</time>
      </trkpt>
      <trkpt lat="46.88218" lon="5.79538">
        <ele>575</ele>
        <time>2017-10-23T06:48:06Z</time>
      </trkpt>
      <trkpt lat="46.88245" lon="5.79529">
        <ele>575</ele>
        <time>2017-10-23T06:50:06Z</time>
      </trkpt>
      <trkpt lat="46.88275" lon="5.79531">
        <ele>577</ele>
        <time>2017-10-23T06:52:06Z</time>
      </trkpt>
      <trkpt lat="46.88302" lon="5.79532">
        <ele>578</ele>
        <time>2017-10-23T06:54:06Z</time>
      </trkpt>
      <trkpt lat="46.88363" lon="5.79539">
        <ele>580</ele>
        <time>2017-10-23T06:56:06Z</time>
      </trkpt>
      <trkpt lat="46.88388" lon="5.79537">
        <ele>580</ele>
        <time>2017-10-23T06:58:06Z</time>
      </trkpt>
      <trkpt lat="46.88417" lon="5.79569">
        <ele>577</ele>
        <time>2017-10-23T07:00:06Z</time>
      </trkpt>
      <trkpt lat="46.8843" lon="5.79601">
        <ele>573</ele>
        <time>2017-10-23T07:02:06Z</time>
      </trkpt>
      <trkpt lat="46.88446" lon="5.79637">
        <ele>569</ele>
        <time>2017-10-23T07:04:06Z</time>
      </trkpt>
      <trkpt lat="46.88464" lon="5.79674">
        <ele>563</ele>
        <time>2017-10-23T07:06:06Z</time>
      </trkpt>
      <trkpt lat="46.88492" lon="5.79658">
        <ele>566</ele>
        <time>2017-10-23T07:08:06Z</time>
      </trkpt>
      <trkpt lat="46.88511" lon="5.79655">
        <ele>564</ele>
        <time>2017-10-23T07:10:06Z</time>
      </trkpt>
      <trkpt lat="46.88539" lon="5.79648">
        <ele>560</ele>
        <time>2017-10-23T07:12:06Z</time>
      </trkpt>
      <trkpt lat="46.88564" lon="5.79656">
        <ele>555</ele>
        <time>2017-10-23T07:14:06Z</time>
      </trkpt>
      <trkpt lat="46.88583" lon="5.79661">
        <ele>551</ele>
        <time>2017-10-23T07:16:06Z</time>
      </trkpt>
      <trkpt lat="46.88603" lon="5.79676">
        <ele>542</ele>
        <time>2017-10-23T07:18:06Z</time>
      </trkpt>
      <trkpt lat="46.8862" lon="5.79685">
        <ele>534</ele>
        <time>2017-10-23T07:20:06Z</time>
      </trkpt>
      <trkpt lat="46.88659" lon="5.79713">
        <ele>516</ele>
        <time>2017-10-23T07:22:06Z</time>
      </trkpt>
      <trkpt lat="46.88623" lon="5.79715">
        <ele>523</ele>
        <time>2017-10-23T07:24:06Z</time>
      </trkpt>
      <trkpt lat="46.88602" lon="5.79718">
        <ele>527</ele>
        <time>2017-10-23T07:26:06Z</time>
      </trkpt>
      <trkpt lat="46.88578" lon="5.79739">
        <ele>523</ele>
        <time>2017-10-23T07:28:06Z</time>
      </trkpt>
      <trkpt lat="46.88557" lon="5.7977">
        <ele>513</ele>
        <time>2017-10-23T07:30:06Z</time>
      </trkpt>
      <trkpt lat="46.88528" lon="5.79817">
        <ele>493</ele>
        <time>2017-10-23T07:32:06Z</time>
      </trkpt>
      <trkpt lat="46.88505" lon="5.79852">
        <ele>481</ele>
        <time>2017-10-23T07:34:06Z</time>
      </trkpt>
      <trkpt lat="46.88483" lon="5.79887">
        <ele>470</ele>
        <time>2017-10-23T07:36:06Z</time>
      </trkpt>
      <trkpt lat="46.88459" lon="5.79922">
        <ele>458</ele>
        <time>2017-10-23T07:38:06Z</time>
      </trkpt>
      <trkpt lat="46.88437" lon="5.79944">
        <ele>453</ele>
        <time>2017-10-23T07:40:06Z</time>
      </trkpt>
      <trkpt lat="46.88416" lon="5.79962">
        <ele>448</ele>
        <time>2017-10-23T07:42:06Z</time>
      </trkpt>
      <trkpt lat="46.88374" lon="5.80003">
        <ele>437</ele>
        <time>2017-10-23T07:44:06Z</time>
      </trkpt>
      <trkpt lat="46.88358" lon="5.8">
        <ele>438</ele>
        <time>2017-10-23T07:46:06Z</time>
      </trkpt>
      <trkpt lat="46.88336" lon="5.80027">
        <ele>432</ele>
        <time>2017-10-23T07:48:06Z</time>
      </trkpt>
      <trkpt lat="46.8831" lon="5.80051">
        <ele>428</ele>
        <time>2017-10-23T07:50:06Z</time>
      </trkpt>
      <trkpt lat="46.88286" lon="5.80077">
        <ele>423</ele>
        <time>2017-10-23T07:52:06Z</time>
      </trkpt>
      <trkpt lat="46.88254" lon="5.80108">
        <ele>415</ele>
        <time>2017-10-23T07:54:06Z</time>
      </trkpt>
      <trkpt lat="46.8822" lon="5.80144">
        <ele>406</ele>
        <time>2017-10-23T07:56:06Z</time>
      </trkpt>
      <trkpt lat="46.88152" lon="5.80211">
        <ele>385</ele>
        <time>2017-10-23T07:58:06Z</time>
      </trkpt>
      <trkpt lat="46.88136" lon="5.80237">
        <ele>376</ele>
        <time>2017-10-23T08:00:06Z</time>
      </trkpt>
      <trkpt lat="46.88123" lon="5.80285">
        <ele>364</ele>
        <time>2017-10-23T08:02:06Z</time>
      </trkpt>
      <trkpt lat="46.88125" lon="5.8031">
        <ele>358</ele>
        <time>2017-10-23T08:04:06Z</time>
      </trkpt>
      <trkpt lat="46.88106" lon="5.80326">
        <ele>358</ele>
        <time>2017-10-23T08:06:06Z</time>
      </trkpt>
      <trkpt lat="46.88081" lon="5.80334">
        <ele>360</ele>
        <time>2017-10-23T08:08:06Z</time>
      </trkpt>
      <trkpt lat="46.88056" lon="5.80363">
        <ele>356</ele>
        <time>2017-10-23T08:10:06Z</time>
      </trkpt>
      <trkpt lat="46.88035" lon="5.80379">
        <ele>354</ele>
        <time>2017-10-23T08:12:06Z</time>
      </trkpt>
      <trkpt lat="46.88001" lon="5.80398">
        <ele>352</ele>
        <time>2017-10-23T08:14:06Z</time>
      </trkpt>
      <trkpt lat="46.87967" lon="5.80421">
        <ele>351</ele>
        <time>2017-10-23T08:16:06Z</time>
      </trkpt>
      <trkpt lat="46.87936" lon="5.80441">
        <ele>350</ele>
        <time>2017-10-23T08:18:06Z</time>
      </trkpt>
      <trkpt lat="46.87907" lon="5.80462">
        <ele>346</ele>
        <time>2017-10-23T08:20:06Z</time>
      </trkpt>
      <trkpt lat="46.87875" lon="5.80489">
        <ele>338</ele>
        <time>2017-10-23T08:22:06Z</time>
      </trkpt>
      <trkpt lat="46.87867" lon="5.80515">
        <ele>333</ele>
        <time>2017-10-23T08:24:06Z</time>
      </trkpt>
      <trkpt lat="46.87888" lon="5.80652">
        <ele>329</ele>
        <time>2017-10-23T08:26:06Z</time>
      </trkpt>
      <trkpt lat="46.87861" lon="5.80673">
        <ele>329</ele>
        <time>2017-10-23T08:28:06Z</time>
      </trkpt>
      <trkpt lat="46.87848" lon="5.80685">
        <ele>328</ele>
        <time>2017-10-23T08:30:06Z</time>
      </trkpt>
      <trkpt lat="46.87833" lon="5.80696">
        <ele>328</ele>
        <time>2017-10-23T08:32:06Z</time>
      </trkpt>
      <trkpt lat="46.87826" lon="5.80716">
        <ele>329</ele>
        <time>2017-10-23T08:34:06Z</time>
      </trkpt>
      <trkpt lat="46.87823" lon="5.80734">
        <ele>329</ele>
        <time>2017-10-23T08:36:06Z</time>
      </trkpt>
      <trkpt lat="46.87839" lon="5.80748">
        <ele>329</ele>
        <time>2017-10-23T08:38:06Z</time>
      </trkpt>
      <trkpt lat="46.87852" lon="5.80763">
        <ele>329</ele>
        <time>2017-10-23T08:40:06Z</time>
      </trkpt>
      <trkpt lat="46.87869" lon="5.80782">
        <ele>329</ele>
        <time>2017-10-23T08:42:06Z</time>
      </trkpt>
      <trkpt lat="46.87882" lon="5.80802">
        <ele>328</ele>
        <time>2017-10-23T08:44:06Z</time>
      </trkpt>
      <trkpt lat="46.87898" lon="5.80842">
        <ele>327</ele>
        <time>2017-10-23T08:46:06Z</time>
      </trkpt>
      <trkpt lat="46.87907" lon="5.80888">
        <ele>328</ele>
        <time>2017-10-23T08:48:06Z</time>
      </trkpt>
      <trkpt lat="46.87913" lon="5.80945">
        <ele>332</ele>
        <time>2017-10-23T08:50:06Z</time>
      </trkpt>
      <trkpt lat="46.87939" lon="5.81028">
        <ele>342</ele>
        <time>2017-10-23T08:52:06Z</time>
      </trkpt>
      <trkpt lat="46.87946" lon="5.81061">
        <ele>345</ele>
        <time>2017-10-23T08:54:06Z</time>
      </trkpt>
      <trkpt lat="46.87949" lon="5.81091">
        <ele>348</ele>
        <time>2017-10-23T08:56:06Z</time>
      </trkpt>
      <trkpt lat="46.87951" lon="5.81134">
        <ele>349</ele>
        <time>2017-10-23T08:58:06Z</time>
      </trkpt>
      <trkpt lat="46.87945" lon="5.81193">
        <ele>353</ele>
        <time>2017-10-23T09:00:06Z</time>
      </trkpt>
      <trkpt lat="46.87933" lon="5.81252">
        <ele>353</ele>
        <time>2017-10-23T09:02:06Z</time>
      </trkpt>
      <trkpt lat="46.87926" lon="5.81299">
        <ele>349</ele>
        <time>2017-10-23T09:04:06Z</time>
      </trkpt>
      <trkpt lat="46.87917" lon="5.81329">
        <ele>345</ele>
        <time>2017-10-23T09:06:06Z</time>
      </trkpt>
      <trkpt lat="46.87915" lon="5.81368">
        <ele>349</ele>
        <time>2017-10-23T09:08:06Z</time>
      </trkpt>
      <trkpt lat="46.87913" lon="5.81394">
        <ele>354</ele>
        <time>2017-10-23T09:10:06Z</time>
      </trkpt>
      <trkpt lat="46.879" lon="5.8143">
        <ele>380</ele>
        <time>2017-10-23T09:12:06Z</time>
      </trkpt>
      <trkpt lat="46.8789" lon="5.81479">
        <ele>420</ele>
        <time>2017-10-23T09:14:06Z</time>
      </trkpt>
    </trkseg>
  </trk>
</gpx>